sensor_id;sensor_type;location;lat;lon;timestamp;pressure;altitude;pressure_sealevel;temperature;humidity
67052;BME280;53957;47.222;18.670;2022-09-09T00:06:27;99964.00;;;16.97;100.00
67052;BME280;53957;47.222;18.670;2022-09-09T00:10:41;99960.44;;;16.84;100.00
67052;BME280;53957;47.222;18.670;2022-09-09T00:13:58;99950.78;;;16.83;100.00
67052;BME280;53957;47.222;18.670;2022-09-09T00:17:18;99941.81;;;16.79;100.00
67052;BME280;53957;47.222;18.670;2022-09-09T00:20:33;99937.75;;;16.73;100.00
67052;BME280;53957;47.222;18.670;2022-09-09T00:23:40;99937.63;;;16.69;100.00
67052;BME280;53957;47.222;18.670;2022-09-09T00:26:54;99944.81;;;16.78;100.00
67052;BME280;53957;47.222;18.670;2022-09-09T00:30:25;99939.63;;;16.72;100.00
67052;BME280;53957;47.222;18.670;2022-09-09T00:33:30;99951.09;;;16.69;100.00
67052;BME280;53957;47.222;18.670;2022-09-09T00:36:34;99950.88;;;16.74;100.00
67052;BME280;53957;47.222;18.670;2022-09-09T00:39:44;99952.19;;;16.68;100.00
67052;BME280;53957;47.222;18.670;2022-09-09T00:42:58;99950.91;;;16.53;100.00
67052;BME280;53957;47.222;18.670;2022-09-09T00:50:12;99962.44;;;16.54;100.00
67052;BME280;53957;47.222;18.670;2022-09-09T00:56:38;99964.66;;;16.52;100.00
67052;BME280;53957;47.222;18.670;2022-09-09T00:59:48;99957.72;;;16.51;100.00
67052;BME280;53957;47.222;18.670;2022-09-09T01:06:32;99971.91;;;16.60;100.00
67052;BME280;53957;47.222;18.670;2022-09-09T01:09:43;99971.63;;;16.53;100.00
67052;BME280;53957;47.222;18.670;2022-09-09T01:12:51;99974.19;;;16.49;100.00
67052;BME280;53957;47.222;18.670;2022-09-09T01:15:59;99976.56;;;16.51;100.00
67052;BME280;53957;47.222;18.670;2022-09-09T01:19:07;99975.25;;;16.57;100.00
67052;BME280;53957;47.222;18.670;2022-09-09T01:22:33;99979.91;;;16.48;100.00
67052;BME280;53957;47.222;18.670;2022-09-09T01:29:16;99974.72;;;16.42;100.00
67052;BME280;53957;47.222;18.670;2022-09-09T01:35:55;99982.53;;;16.35;100.00
67052;BME280;53957;47.222;18.670;2022-09-09T01:39:00;99993.28;;;16.35;100.00
67052;BME280;53957;47.222;18.670;2022-09-09T01:42:06;100002.16;;;16.36;100.00
67052;BME280;53957;47.222;18.670;2022-09-09T01:45:10;100000.75;;;16.30;100.00
67052;BME280;53957;47.222;18.670;2022-09-09T01:48:13;99998.12;;;16.21;100.00
67052;BME280;53957;47.222;18.670;2022-09-09T01:51:18;100000.75;;;16.30;100.00
67052;BME280;53957;47.222;18.670;2022-09-09T01:54:24;99996.81;;;16.27;100.00
67052;BME280;53957;47.222;18.670;2022-09-09T01:57:39;100012.66;;;16.29;100.00
67052;BME280;53957;47.222;18.670;2022-09-09T02:01:38;100019.00;;;16.24;100.00
67052;BME280;53957;47.222;18.670;2022-09-09T02:07:50;100024.41;;;16.24;100.00
67052;BME280;53957;47.222;18.670;2022-09-09T02:11:06;100022.34;;;16.21;100.00
67052;BME280;53957;47.222;18.670;2022-09-09T02:14:18;100012.56;;;16.16;100.00
67052;BME280;53957;47.222;18.670;2022-09-09T02:17:29;100011.28;;;16.14;100.00
67052;BME280;53957;47.222;18.670;2022-09-09T02:20:36;100002.59;;;16.17;100.00
67052;BME280;53957;47.222;18.670;2022-09-09T02:23:42;100009.59;;;16.09;100.00
67052;BME280;53957;47.222;18.670;2022-09-09T02:26:49;100007.19;;;16.16;100.00
67052;BME280;53957;47.222;18.670;2022-09-09T02:29:56;100009.91;;;16.07;100.00
67052;BME280;53957;47.222;18.670;2022-09-09T02:33:07;100004.50;;;16.16;100.00
67052;BME280;53957;47.222;18.670;2022-09-09T02:36:15;100007.69;;;16.09;100.00
67052;BME280;53957;47.222;18.670;2022-09-09T02:39:19;100008.31;;;16.15;100.00
67052;BME280;53957;47.222;18.670;2022-09-09T02:42:25;100011.44;;;16.17;100.00
67052;BME280;53957;47.222;18.670;2022-09-09T02:46:07;100019.13;;;16.06;100.00
67052;BME280;53957;47.222;18.670;2022-09-09T02:52:38;100035.59;;;15.96;100.00
67052;BME280;53957;47.222;18.670;2022-09-09T02:58:51;100030.09;;;15.84;100.00
67052;BME280;53957;47.222;18.670;2022-09-09T03:01:54;100030.25;;;15.78;100.00
67052;BME280;53957;47.222;18.670;2022-09-09T03:04:58;100030.09;;;15.84;100.00
67052;BME280;53957;47.222;18.670;2022-09-09T03:08:03;100035.00;;;15.82;100.00
67052;BME280;53957;47.222;18.670;2022-09-09T03:11:07;100031.69;;;15.85;100.00
67052;BME280;53957;47.222;18.670;2022-09-09T03:14:12;100029.47;;;15.87;100.00
67052;BME280;53957;47.222;18.670;2022-09-09T03:17:15;100037.37;;;15.92;100.00
67052;BME280;53957;47.222;18.670;2022-09-09T03:20:20;100035.81;;;15.82;100.00
67052;BME280;53957;47.222;18.670;2022-09-09T03:23:23;100035.00;;;15.82;100.00
67052;BME280;53957;47.222;18.670;2022-09-09T03:26:26;100042.28;;;15.81;100.00
67052;BME280;53957;47.222;18.670;2022-09-09T03:29:30;100036.75;;;15.77;100.00
67052;BME280;53957;47.222;18.670;2022-09-09T03:32:34;100035.50;;;15.75;100.00
67052;BME280;53957;47.222;18.670;2022-09-09T03:35:37;100032.03;;;15.74;100.00
67052;BME280;53957;47.222;18.670;2022-09-09T03:38:41;100032.47;;;15.76;100.00
67052;BME280;53957;47.222;18.670;2022-09-09T03:41:44;100034.53;;;15.80;100.00
67052;BME280;53957;47.222;18.670;2022-09-09T03:44:49;100034.22;;;15.81;100.00
67052;BME280;53957;47.222;18.670;2022-09-09T03:47:56;100031.50;;;15.90;100.00
67052;BME280;53957;47.222;18.670;2022-09-09T03:51:00;100035.78;;;15.91;100.00
67052;BME280;53957;47.222;18.670;2022-09-09T03:54:04;100047.00;;;15.93;100.00
67052;BME280;53957;47.222;18.670;2022-09-09T03:57:10;100050.16;;;15.95;100.00
67052;BME280;53957;47.222;18.670;2022-09-09T04:00:14;100039.12;;;15.88;100.00
67052;BME280;53957;47.222;18.670;2022-09-09T04:03:17;100039.12;;;15.88;100.00
67052;BME280;53957;47.222;18.670;2022-09-09T04:06:20;100039.44;;;15.86;100.00
67052;BME280;53957;47.222;18.670;2022-09-09T04:09:24;100042.12;;;15.86;100.00
67052;BME280;53957;47.222;18.670;2022-09-09T04:12:27;100033.44;;;15.81;100.00
67052;BME280;53957;47.222;18.670;2022-09-09T04:15:31;100035.50;;;15.84;100.00
67052;BME280;53957;47.222;18.670;2022-09-09T04:18:34;100031.38;;;15.77;100.00
67052;BME280;53957;47.222;18.670;2022-09-09T04:21:38;100026.94;;;15.73;100.00
67052;BME280;53957;47.222;18.670;2022-09-09T04:24:42;100024.59;;;15.71;100.00
67052;BME280;53957;47.222;18.670;2022-09-09T04:27:57;100027.25;;;15.80;100.00
67052;BME280;53957;47.222;18.670;2022-09-09T04:31:09;100019.22;;;15.71;100.00
67052;BME280;53957;47.222;18.670;2022-09-09T04:34:14;100023.97;;;15.74;100.00
67052;BME280;53957;47.222;18.670;2022-09-09T04:37:17;100019.19;;;15.80;100.00
67052;BME280;53957;47.222;18.670;2022-09-09T04:40:23;100022.84;;;15.75;100.00
67052;BME280;53957;47.222;18.670;2022-09-09T04:43:26;100022.38;;;15.73;100.00
67052;BME280;53957;47.222;18.670;2022-09-09T04:46:29;100019.50;;;15.78;100.00
67052;BME280;53957;47.222;18.670;2022-09-09T04:49:33;100011.56;;;15.91;100.00
67052;BME280;53957;47.222;18.670;2022-09-09T04:52:36;100022.03;;;15.84;100.00
67052;BME280;53957;47.222;18.670;2022-09-09T04:55:40;100024.72;;;15.84;100.00
67052;BME280;53957;47.222;18.670;2022-09-09T04:58:43;100024.38;;;15.94;100.00
67052;BME280;53957;47.222;18.670;2022-09-09T05:01:47;100029.06;;;16.06;100.00
67052;BME280;53957;47.222;18.670;2022-09-09T05:04:50;100031.44;;;16.07;100.00
67052;BME280;53957;47.222;18.670;2022-09-09T05:07:53;100036.22;;;16.02;100.00
67052;BME280;53957;47.222;18.670;2022-09-09T05:10:56;100030.50;;;16.03;100.00
67052;BME280;53957;47.222;18.670;2022-09-09T05:13:59;100034.44;;;16.06;100.00
67052;BME280;53957;47.222;18.670;2022-09-09T05:17:03;100029.81;;;16.15;100.00
67052;BME280;53957;47.222;18.670;2022-09-09T05:20:08;100028.97;;;16.23;100.00
67052;BME280;53957;47.222;18.670;2022-09-09T05:23:17;100030.69;;;16.28;100.00
67052;BME280;53957;47.222;18.670;2022-09-09T05:26:22;100034.56;;;16.39;100.00
67052;BME280;53957;47.222;18.670;2022-09-09T05:29:25;100028.41;;;16.39;100.00
67052;BME280;53957;47.222;18.670;2022-09-09T05:32:31;100031.97;;;16.52;100.00
67052;BME280;53957;47.222;18.670;2022-09-09T05:35:37;100033.81;;;16.60;100.00
67052;BME280;53957;47.222;18.670;2022-09-09T05:38:41;100042.72;;;16.82;100.00
67052;BME280;53957;47.222;18.670;2022-09-09T05:41:44;100047.78;;;17.04;100.00
67052;BME280;53957;47.222;18.670;2022-09-09T05:44:48;100043.87;;;17.14;100.00
67052;BME280;53957;47.222;18.670;2022-09-09T05:47:53;100042.75;;;17.49;100.00
67052;BME280;53957;47.222;18.670;2022-09-09T05:50:58;100040.44;;;17.72;100.00
67052;BME280;53957;47.222;18.670;2022-09-09T05:54:01;100045.97;;;17.76;100.00
67052;BME280;53957;47.222;18.670;2022-09-09T05:57:05;100046.97;;;17.83;100.00
67052;BME280;53957;47.222;18.670;2022-09-09T06:00:12;100046.31;;;17.86;100.00
67052;BME280;53957;47.222;18.670;2022-09-09T06:03:17;100050.72;;;18.03;100.00
67052;BME280;53957;47.222;18.670;2022-09-09T06:06:23;100046.91;;;18.05;100.00
67052;BME280;53957;47.222;18.670;2022-09-09T06:09:28;100047.13;;;18.12;100.00
67052;BME280;53957;47.222;18.670;2022-09-09T06:12:32;100044.78;;;18.10;100.00
67052;BME280;53957;47.222;18.670;2022-09-09T06:15:36;100042.19;;;18.14;100.00
67052;BME280;53957;47.222;18.670;2022-09-09T06:18:40;100045.78;;;18.18;100.00
67052;BME280;53957;47.222;18.670;2022-09-09T06:21:43;100047.34;;;18.31;100.00
67052;BME280;53957;47.222;18.670;2022-09-09T06:24:47;100035.53;;;18.36;100.00
67052;BME280;53957;47.222;18.670;2022-09-09T06:27:51;100042.06;;;18.23;100.00
67052;BME280;53957;47.222;18.670;2022-09-09T06:31:02;100041.38;;;18.38;100.00
67052;BME280;53957;47.222;18.670;2022-09-09T06:34:08;100048.72;;;18.13;100.00
67052;BME280;53957;47.222;18.670;2022-09-09T06:37:13;100061.31;;;18.21;100.00
67052;BME280;53957;47.222;18.670;2022-09-09T06:40:16;100059.50;;;18.38;100.00
67052;BME280;53957;47.222;18.670;2022-09-09T06:43:20;100062.84;;;18.34;100.00
67052;BME280;53957;47.222;18.670;2022-09-09T06:46:29;100056.81;;;18.25;100.00
67052;BME280;53957;47.222;18.670;2022-09-09T06:49:35;100074.47;;;18.23;100.00
67052;BME280;53957;47.222;18.670;2022-09-09T06:52:40;100068.03;;;18.15;100.00
67052;BME280;53957;47.222;18.670;2022-09-09T06:55:43;100071.63;;;17.94;100.00
67052;BME280;53957;47.222;18.670;2022-09-09T06:58:49;100077.28;;;18.14;100.00
67052;BME280;53957;47.222;18.670;2022-09-09T07:01:53;100079.75;;;18.19;100.00
67052;BME280;53957;47.222;18.670;2022-09-09T07:04:59;100075.94;;;18.32;100.00
67052;BME280;53957;47.222;18.670;2022-09-09T07:08:02;100077.03;;;18.44;100.00
67052;BME280;53957;47.222;18.670;2022-09-09T07:11:07;100075.22;;;18.35;100.00
67052;BME280;53957;47.222;18.670;2022-09-09T07:14:15;100068.38;;;18.38;100.00
67052;BME280;53957;47.222;18.670;2022-09-09T07:17:19;100074.56;;;18.51;100.00
67052;BME280;53957;47.222;18.670;2022-09-09T07:20:22;100071.63;;;18.56;100.00
67052;BME280;53957;47.222;18.670;2022-09-09T07:23:25;100073.59;;;18.72;100.00
67052;BME280;53957;47.222;18.670;2022-09-09T07:26:30;100082.22;;;19.59;100.00
67052;BME280;53957;47.222;18.670;2022-09-09T07:29:33;100079.53;;;19.75;99.33
67052;BME280;53957;47.222;18.670;2022-09-09T07:32:36;100090.06;;;19.64;100.00
67052;BME280;53957;47.222;18.670;2022-09-09T07:35:40;100082.19;;;19.87;99.21
67052;BME280;53957;47.222;18.670;2022-09-09T07:38:47;100079.97;;;19.77;100.00
67052;BME280;53957;47.222;18.670;2022-09-09T07:41:54;100082.09;;;19.55;98.19
67052;BME280;53957;47.222;18.670;2022-09-09T07:44:57;100079.41;;;19.55;100.00
67052;BME280;53957;47.222;18.670;2022-09-09T07:48:01;100089.47;;;19.26;100.00
67052;BME280;53957;47.222;18.670;2022-09-09T07:51:13;100081.94;;;19.20;100.00
67052;BME280;53957;47.222;18.670;2022-09-09T07:54:21;100078.97;;;19.09;100.00
67052;BME280;53957;47.222;18.670;2022-09-09T07:57:26;100073.19;;;19.10;100.00
67052;BME280;53957;47.222;18.670;2022-09-09T08:00:30;100076.00;;;19.14;100.00
67052;BME280;53957;47.222;18.670;2022-09-09T08:03:34;100079.03;;;20.01;100.00
67052;BME280;53957;47.222;18.670;2022-09-09T08:06:41;100070.75;;;20.46;98.34
67052;BME280;53957;47.222;18.670;2022-09-09T08:10:05;100077.78;;;21.21;95.04
67052;BME280;53957;47.222;18.670;2022-09-09T08:13:09;100083.16;;;22.07;93.00
67052;BME280;53957;47.222;18.670;2022-09-09T08:16:24;100080.72;;;22.25;87.17
67052;BME280;53957;47.222;18.670;2022-09-09T08:19:28;100077.75;;;22.61;81.18
67052;BME280;53957;47.222;18.670;2022-09-09T08:22:36;100087.28;;;22.78;82.82
67052;BME280;53957;47.222;18.670;2022-09-09T08:25:41;100085.72;;;23.11;77.86
67052;BME280;53957;47.222;18.670;2022-09-09T08:28:44;100092.97;;;22.69;79.32
67052;BME280;53957;47.222;18.670;2022-09-09T08:31:50;100091.03;;;23.00;78.02
67052;BME280;53957;47.222;18.670;2022-09-09T08:34:58;100095.28;;;23.28;78.00
67052;BME280;53957;47.222;18.670;2022-09-09T08:38:03;100101.50;;;23.28;78.56
67052;BME280;53957;47.222;18.670;2022-09-09T08:51:30;100088.81;;;23.85;69.20
67052;BME280;53957;47.222;18.670;2022-09-09T08:54:36;100086.00;;;24.19;76.73
67052;BME280;53957;47.222;18.670;2022-09-09T08:57:57;100084.34;;;24.03;75.06
67052;BME280;53957;47.222;18.670;2022-09-09T09:11:07;100062.38;;;24.37;68.53
67052;BME280;53957;47.222;18.670;2022-09-09T09:14:20;100059.34;;;24.57;70.37
67052;BME280;53957;47.222;18.670;2022-09-09T09:17:28;100066.59;;;25.08;70.07
67052;BME280;53957;47.222;18.670;2022-09-09T09:23:47;100057.31;;;25.38;67.98
67052;BME280;53957;47.222;18.670;2022-09-09T09:26:54;100057.25;;;25.10;66.87
67052;BME280;53957;47.222;18.670;2022-09-09T09:30:00;100043.66;;;25.31;66.53
67052;BME280;53957;47.222;18.670;2022-09-09T09:33:30;100031.19;;;25.48;65.14
67052;BME280;53957;47.222;18.670;2022-09-09T09:36:43;100049.16;;;25.53;61.86
67052;BME280;53957;47.222;18.670;2022-09-09T09:39:49;100052.69;;;25.53;62.10
67052;BME280;53957;47.222;18.670;2022-09-09T09:43:19;100065.97;;;25.69;61.02
67052;BME280;53957;47.222;18.670;2022-09-09T09:46:26;100060.78;;;25.24;59.54
67052;BME280;53957;47.222;18.670;2022-09-09T09:49:30;100055.78;;;25.59;55.19
67052;BME280;53957;47.222;18.670;2022-09-09T09:52:33;100066.34;;;26.00;60.44
67052;BME280;53957;47.222;18.670;2022-09-09T09:55:50;100062.81;;;26.25;59.20
67052;BME280;53957;47.222;18.670;2022-09-09T09:58:56;100060.47;;;26.02;58.76
67052;BME280;53957;47.222;18.670;2022-09-09T10:05:17;100057.37;;;26.07;59.24
67052;BME280;53957;47.222;18.670;2022-09-09T10:08:28;100060.44;;;26.27;51.50
67052;BME280;53957;47.222;18.670;2022-09-09T10:19:00;100044.37;;;26.51;54.29
67052;BME280;53957;47.222;18.670;2022-09-09T10:22:21;100056.91;;;26.38;56.03
67052;BME280;53957;47.222;18.670;2022-09-09T10:26:00;100053.31;;;26.62;48.81
67052;BME280;53957;47.222;18.670;2022-09-09T10:42:17;100049.00;;;26.68;41.77
67052;BME280;53957;47.222;18.670;2022-09-09T10:45:35;100045.03;;;26.84;46.59
67052;BME280;53957;47.222;18.670;2022-09-09T10:52:32;100037.69;;;27.41;46.33
67052;BME280;53957;47.222;18.670;2022-09-09T10:55:42;100045.91;;;26.52;50.00
67052;BME280;53957;47.222;18.670;2022-09-09T10:58:59;100042.50;;;26.23;46.85
67052;BME280;53957;47.222;18.670;2022-09-09T11:05:21;100041.31;;;26.24;50.42
67052;BME280;53957;47.222;18.670;2022-09-09T11:08:29;100043.69;;;25.93;51.04
67052;BME280;53957;47.222;18.670;2022-09-09T11:11:55;100043.31;;;25.94;52.46
67052;BME280;53957;47.222;18.670;2022-09-09T11:15:04;100036.69;;;25.81;53.58
67052;BME280;53957;47.222;18.670;2022-09-09T11:18:14;100037.44;;;25.99;53.69
67052;BME280;53957;47.222;18.670;2022-09-09T11:21:34;100042.16;;;25.88;50.43
67052;BME280;53957;47.222;18.670;2022-09-09T11:24:53;100041.25;;;26.49;48.87
67052;BME280;53957;47.222;18.670;2022-09-09T11:38:35;100031.78;;;26.68;48.64
67052;BME280;53957;47.222;18.670;2022-09-09T11:41:43;100036.19;;;26.51;49.99
67052;BME280;53957;47.222;18.670;2022-09-09T11:44:47;100035.12;;;25.72;45.25
67052;BME280;53957;47.222;18.670;2022-09-09T11:47:54;100025.69;;;25.23;47.98
67052;BME280;53957;47.222;18.670;2022-09-09T11:54:34;100031.09;;;24.90;53.59
67052;BME280;53957;47.222;18.670;2022-09-09T11:58:03;100036.59;;;25.16;54.79
67052;BME280;53957;47.222;18.670;2022-09-09T12:01:27;100024.50;;;25.10;56.96
67052;BME280;53957;47.222;18.670;2022-09-09T12:04:33;100023.72;;;25.23;57.44
67052;BME280;53957;47.222;18.670;2022-09-09T12:07:42;100015.56;;;25.34;53.42
67052;BME280;53957;47.222;18.670;2022-09-09T12:10:57;100022.53;;;25.14;57.18
67052;BME280;53957;47.222;18.670;2022-09-09T12:14:01;100026.81;;;25.04;57.19
67052;BME280;53957;47.222;18.670;2022-09-09T12:17:20;100012.47;;;25.43;53.10
67052;BME280;53957;47.222;18.670;2022-09-09T12:20:33;100001.16;;;25.52;54.01
67052;BME280;53957;47.222;18.670;2022-09-09T12:23:47;100003.88;;;25.23;55.92
67052;BME280;53957;47.222;18.670;2022-09-09T12:27:20;100001.91;;;25.23;52.04
67052;BME280;53957;47.222;18.670;2022-09-09T12:30:24;100008.53;;;25.12;54.02
67052;BME280;53957;47.222;18.670;2022-09-09T12:33:37;100009.31;;;25.16;54.46
67052;BME280;53957;47.222;18.670;2022-09-09T12:36:52;99998.03;;;25.68;50.78
67052;BME280;53957;47.222;18.670;2022-09-09T12:39:59;99991.81;;;25.75;53.65
67052;BME280;53957;47.222;18.670;2022-09-09T12:43:21;99995.66;;;25.95;54.19
67052;BME280;53957;47.222;18.670;2022-09-09T12:46:35;99982.38;;;26.04;52.98
67052;BME280;53957;47.222;18.670;2022-09-09T12:49:41;99968.75;;;25.90;47.40
67052;BME280;53957;47.222;18.670;2022-09-09T12:52:44;99973.00;;;24.94;52.82
67052;BME280;53957;47.222;18.670;2022-09-09T12:55:55;99959.34;;;24.72;55.91
67052;BME280;53957;47.222;18.670;2022-09-09T12:58:59;99947.69;;;24.86;53.62
67052;BME280;53957;47.222;18.670;2022-09-09T13:02:33;99949.25;;;25.08;53.71
67052;BME280;53957;47.222;18.670;2022-09-09T13:05:36;99949.28;;;25.19;53.97
67052;BME280;53957;47.222;18.670;2022-09-09T13:08:40;99946.94;;;25.32;53.54
67052;BME280;53957;47.222;18.670;2022-09-09T13:11:46;99951.62;;;25.10;54.05
67052;BME280;53957;47.222;18.670;2022-09-09T13:14:53;99941.06;;;24.87;55.89
67052;BME280;53957;47.222;18.670;2022-09-09T13:17:59;99945.72;;;24.83;53.16
67052;BME280;53957;47.222;18.670;2022-09-09T13:21:04;99944.53;;;24.76;55.60
67052;BME280;53957;47.222;18.670;2022-09-09T13:24:27;99942.25;;;25.00;51.02
67052;BME280;53957;47.222;18.670;2022-09-09T13:27:50;99944.22;;;25.61;51.61
67052;BME280;53957;47.222;18.670;2022-09-09T13:31:00;99939.91;;;25.71;50.76
67052;BME280;53957;47.222;18.670;2022-09-09T13:34:28;99929.75;;;25.86;53.29
67052;BME280;53957;47.222;18.670;2022-09-09T13:37:35;99923.53;;;25.75;51.86
67052;BME280;53957;47.222;18.670;2022-09-09T13:40:38;99928.25;;;25.42;53.09
67052;BME280;53957;47.222;18.670;2022-09-09T13:43:45;99913.41;;;25.28;47.47
67052;BME280;53957;47.222;18.670;2022-09-09T13:47:06;99921.59;;;25.06;53.58
67052;BME280;53957;47.222;18.670;2022-09-09T13:50:28;99918.81;;;24.78;53.26
67052;BME280;53957;47.222;18.670;2022-09-09T13:53:31;99916.00;;;24.49;55.58
67052;BME280;53957;47.222;18.670;2022-09-09T13:56:36;99900.84;;;24.62;53.23
67052;BME280;53957;47.222;18.670;2022-09-09T13:59:39;99894.31;;;24.99;49.52
67052;BME280;53957;47.222;18.670;2022-09-09T14:03:05;99899.38;;;25.19;53.85
67052;BME280;53957;47.222;18.670;2022-09-09T14:06:10;99895.88;;;25.40;52.49
67052;BME280;53957;47.222;18.670;2022-09-09T14:09:15;99888.84;;;25.46;53.55
67052;BME280;53957;47.222;18.670;2022-09-09T14:12:18;99888.44;;;25.51;50.73
67052;BME280;53957;47.222;18.670;2022-09-09T14:15:21;99882.22;;;25.22;54.07
67052;BME280;53957;47.222;18.670;2022-09-09T14:18:24;99872.84;;;25.05;51.97
67052;BME280;53957;47.222;18.670;2022-09-09T14:21:47;99873.25;;;25.07;55.24
67052;BME280;53957;47.222;18.670;2022-09-09T14:24:51;99872.84;;;24.76;55.79
67052;BME280;53957;47.222;18.670;2022-09-09T14:27:55;99882.22;;;25.18;53.39
67052;BME280;53957;47.222;18.670;2022-09-09T14:31:03;99886.03;;;24.63;59.00
67052;BME280;53957;47.222;18.670;2022-09-09T14:34:06;99891.00;;;24.32;60.60
67052;BME280;53957;47.222;18.670;2022-09-09T14:37:09;99887.09;;;24.19;61.47
67052;BME280;53957;47.222;18.670;2022-09-09T14:40:12;99895.03;;;23.79;60.03
67052;BME280;53957;47.222;18.670;2022-09-09T14:43:17;99891.53;;;23.78;61.47
67052;BME280;53957;47.222;18.670;2022-09-09T14:46:20;99894.28;;;23.82;58.53
67052;BME280;53957;47.222;18.670;2022-09-09T14:49:28;99890.38;;;23.76;59.79
67052;BME280;53957;47.222;18.670;2022-09-09T14:52:31;99885.38;;;23.89;60.49
67052;BME280;53957;47.222;18.670;2022-09-09T14:55:34;99878.13;;;24.18;56.93
67052;BME280;53957;47.222;18.670;2022-09-09T14:58:37;99880.59;;;24.56;58.02
67052;BME280;53957;47.222;18.670;2022-09-09T15:01:40;99884.53;;;24.73;56.42
67052;BME280;53957;47.222;18.670;2022-09-09T15:04:43;99891.56;;;24.96;52.06
67052;BME280;53957;47.222;18.670;2022-09-09T15:07:46;99881.44;;;25.07;53.70
67052;BME280;53957;47.222;18.670;2022-09-09T15:10:50;99871.97;;;24.47;55.87
67052;BME280;53957;47.222;18.670;2022-09-09T15:13:54;99877.00;;;24.30;53.61
67052;BME280;53957;47.222;18.670;2022-09-09T15:16:57;99880.75;;;23.93;62.59
67052;BME280;53957;47.222;18.670;2022-09-09T15:20:00;99886.00;;;23.64;60.46
67052;BME280;53957;47.222;18.670;2022-09-09T15:23:03;99881.66;;;23.48;57.10
67052;BME280;53957;47.222;18.670;2022-09-09T15:26:07;99878.69;;;23.16;61.42
67052;BME280;53957;47.222;18.670;2022-09-09T15:29:10;99877.41;;;23.06;62.36
67052;BME280;53957;47.222;18.670;2022-09-09T15:32:14;99887.34;;;22.88;69.62
67052;BME280;53957;47.222;18.670;2022-09-09T15:35:17;99888.22;;;22.95;67.49
67052;BME280;53957;47.222;18.670;2022-09-09T15:38:20;99896.31;;;22.92;67.06
67052;BME280;53957;47.222;18.670;2022-09-09T15:41:27;99888.97;;;22.96;65.38
67052;BME280;53957;47.222;18.670;2022-09-09T15:44:38;99888.94;;;22.92;65.24
67052;BME280;53957;47.222;18.670;2022-09-09T15:47:41;99892.00;;;22.87;66.85
67052;BME280;53957;47.222;18.670;2022-09-09T15:50:44;99881.75;;;22.70;67.42
67052;BME280;53957;47.222;18.670;2022-09-09T15:53:47;99886.31;;;22.62;68.66
67052;BME280;53957;47.222;18.670;2022-09-09T15:56:56;99888.63;;;22.60;66.88
67052;BME280;53957;47.222;18.670;2022-09-09T15:59:59;99894.00;;;22.52;66.99
67052;BME280;53957;47.222;18.670;2022-09-09T16:03:02;99899.09;;;22.58;68.23
67052;BME280;53957;47.222;18.670;2022-09-09T16:06:05;99885.50;;;22.58;68.82
67052;BME280;53957;47.222;18.670;2022-09-09T16:09:08;99895.53;;;22.50;69.68
67052;BME280;53957;47.222;18.670;2022-09-09T16:12:12;99889.78;;;22.59;70.33
67052;BME280;53957;47.222;18.670;2022-09-09T16:15:16;99889.28;;;22.49;72.41
67052;BME280;53957;47.222;18.670;2022-09-09T16:18:20;99887.16;;;22.35;77.15
67052;BME280;53957;47.222;18.670;2022-09-09T16:21:28;99882.19;;;22.07;76.11
67052;BME280;53957;47.222;18.670;2022-09-09T16:24:34;99890.12;;;21.89;75.71
67052;BME280;53957;47.222;18.670;2022-09-09T16:27:38;99898.50;;;21.80;75.42
67052;BME280;53957;47.222;18.670;2022-09-09T16:30:40;99898.00;;;21.71;76.67
67052;BME280;53957;47.222;18.670;2022-09-09T16:33:44;99908.63;;;21.57;78.55
67052;BME280;53957;47.222;18.670;2022-09-09T16:36:48;99908.09;;;21.47;78.29
67052;BME280;53957;47.222;18.670;2022-09-09T16:39:51;99917.69;;;21.41;78.16
67052;BME280;53957;47.222;18.670;2022-09-09T16:42:54;99907.19;;;21.39;81.87
67052;BME280;53957;47.222;18.670;2022-09-09T16:45:57;99907.09;;;21.32;81.37
67052;BME280;53957;47.222;18.670;2022-09-09T16:49:07;99909.87;;;21.13;86.83
67052;BME280;53957;47.222;18.670;2022-09-09T16:52:10;99898.47;;;21.03;89.98
67052;BME280;53957;47.222;18.670;2022-09-09T16:55:13;99900.59;;;20.90;91.73
67052;BME280;53957;47.222;18.670;2022-09-09T16:58:16;99901.53;;;20.79;91.55
67052;BME280;53957;47.222;18.670;2022-09-09T17:01:19;99894.06;;;20.72;84.03
67052;BME280;53957;47.222;18.670;2022-09-09T17:04:25;99879.37;;;20.53;90.45
67052;BME280;53957;47.222;18.670;2022-09-09T17:07:29;99879.22;;;20.46;87.92
67052;BME280;53957;47.222;18.670;2022-09-09T17:10:32;99882.91;;;20.57;85.42
67052;BME280;53957;47.222;18.670;2022-09-09T17:13:35;99873.81;;;20.46;89.23
67052;BME280;53957;47.222;18.670;2022-09-09T17:16:43;99873.59;;;20.35;90.60
67052;BME280;53957;47.222;18.670;2022-09-09T17:19:47;99877.22;;;20.23;93.54
67052;BME280;53957;47.222;18.670;2022-09-09T17:22:50;99877.03;;;20.13;94.32
67052;BME280;53957;47.222;18.670;2022-09-09T17:25:58;99882.44;;;20.13;95.08
67052;BME280;53957;47.222;18.670;2022-09-09T17:29:01;99875.09;;;20.13;90.89
67052;BME280;53957;47.222;18.670;2022-09-09T17:32:05;99870.72;;;20.08;94.37
67052;BME280;53957;47.222;18.670;2022-09-09T17:35:09;99872.72;;;19.92;95.80
67052;BME280;53957;47.222;18.670;2022-09-09T17:38:32;99868.09;;;19.92;93.88
67052;BME280;53957;47.222;18.670;2022-09-09T17:41:37;99878.63;;;19.98;96.35
67052;BME280;53957;47.222;18.670;2022-09-09T17:44:41;99886.06;;;20.01;97.09
67052;BME280;53957;47.222;18.670;2022-09-09T17:47:45;99885.63;;;19.99;97.99
67052;BME280;53957;47.222;18.670;2022-09-09T17:50:57;99883.91;;;19.90;95.74